createdAt,value
2023-03-10T00:08:26.741Z,3069.82617
2023-03-10T00:23:29.712Z,2620.06299
2023-03-10T00:38:31.978Z,2256.56934
2023-03-10T00:53:34.340Z,1776.75757
2023-03-10T01:08:36.755Z,1126.34607
2023-03-10T01:23:39.074Z,630.05585
2023-03-10T01:38:41.372Z,192.89403
2023-03-10T01:53:43.932Z,42.64994
2023-03-10T02:08:46.273Z,2.90795
2023-03-10T02:24:00.392Z,0
2023-03-10T02:39:03.526Z,0
2023-03-10T02:54:05.920Z,0
2023-03-10T03:09:08.144Z,0
2023-03-10T03:24:10.334Z,0
2023-03-10T03:39:12.575Z,0
2023-03-10T03:54:14.764Z,0
2023-03-10T04:09:17.283Z,0
2023-03-10T04:24:19.501Z,0
2023-03-10T04:39:21.953Z,0
2023-03-10T04:54:24.219Z,0
2023-03-10T05:09:26.463Z,0
2023-03-10T05:24:28.765Z,0
2023-03-10T05:39:31.032Z,0
2023-03-10T05:54:33.331Z,0
2023-03-10T06:09:35.576Z,0
2023-03-10T06:24:37.817Z,0
2023-03-10T06:39:40.181Z,0
2023-03-10T06:54:42.413Z,0
2023-03-10T07:09:44.634Z,0
2023-03-10T07:24:46.906Z,0
2023-03-10T07:39:49.322Z,0
2023-03-10T07:54:51.585Z,0
2023-03-10T08:09:53.884Z,0
2023-03-10T08:24:56.129Z,0
2023-03-10T08:39:58.485Z,0
2023-03-10T08:55:00.738Z,0
2023-03-10T09:10:02.977Z,0
2023-03-10T09:25:05.235Z,0
2023-03-10T09:40:07.709Z,0
2023-03-10T09:55:11.643Z,0
2023-03-10T10:10:15.231Z,0
2023-03-10T10:25:17.507Z,0
2023-03-10T10:40:19.733Z,0
2023-03-10T10:55:22.048Z,0
2023-03-10T11:10:24.423Z,0
2023-03-10T11:25:26.745Z,0
2023-03-10T11:40:28.971Z,0
2023-03-10T11:55:31.188Z,0
2023-03-10T12:10:33.469Z,0
2023-03-10T12:25:35.925Z,0
2023-03-10T12:40:38.120Z,0
2023-03-10T12:55:40.382Z,0
2023-03-10T13:10:42.590Z,0
2023-03-10T13:25:44.826Z,0
2023-03-10T13:40:47.055Z,0
2023-03-10T13:55:49.580Z,1.93863
2023-03-10T14:10:51.876Z,20.35565
2023-03-10T14:25:54.082Z,91.11577
2023-03-10T14:40:56.389Z,200.64856
2023-03-10T14:55:58.641Z,342.16879
2023-03-10T15:11:00.903Z,583.52869
2023-03-10T15:26:03.130Z,789.9931
2023-03-10T15:41:05.395Z,922.78949
2023-03-10T15:56:07.677Z,1475.30005
2023-03-10T16:11:09.911Z,1568.35449
2023-03-10T16:26:12.139Z,2400.99756
2023-03-10T16:41:14.368Z,2700.51636
2023-03-10T16:56:16.645Z,3864.66577
2023-03-10T17:11:19.004Z,4408.45264
2023-03-10T17:26:21.231Z,4623.64062
2023-03-10T17:41:23.421Z,5319.61035
2023-03-10T17:56:25.701Z,5383.58496
2023-03-10T18:11:27.988Z,5016.21387
2023-03-10T18:26:30.593Z,4441.40918
2023-03-10T18:41:32.995Z,4360.95605
2023-03-10T18:56:35.436Z,5350.62842
2023-03-10T19:11:37.766Z,6079.55469
2023-03-10T19:26:40.082Z,6758.07617
2023-03-10T19:41:42.363Z,7709.94531
2023-03-10T19:56:44.555Z,8604.625
2023-03-10T20:11:46.793Z,8156.80029
2023-03-10T20:26:49.085Z,9292.83984
2023-03-10T20:41:51.336Z,9092.19043
2023-03-10T20:56:53.747Z,10183.6416
2023-03-10T21:11:56.047Z,15980.15527
2023-03-10T21:26:58.328Z,17348.83008
2023-03-10T21:42:00.600Z,16043.16113
2023-03-10T21:57:03.225Z,17866.44531
2023-03-10T22:12:05.493Z,12934.5625
2023-03-10T22:27:07.691Z,9218.20215
2023-03-10T22:42:09.912Z,6455.64941
2023-03-10T22:57:12.182Z,5915.73975
2023-03-10T23:12:14.572Z,6557.42773
2023-03-10T23:27:16.841Z,4814.59619
2023-03-10T23:42:19.242Z,3532.19019
2023-03-10T23:57:21.592Z,2883.71729
